createdAt,value
2023-05-14T00:00:10.091Z,22.70
2023-05-14T00:01:10.099Z,19.30
2023-05-14T00:02:10.175Z,18.10
2023-05-14T00:03:10.237Z,23.00
2023-05-14T00:04:10.108Z,21.80
2023-05-14T00:05:10.068Z,20.90
2023-05-14T00:06:10.062Z,20.90
2023-05-14T00:07:10.058Z,22.00
2023-05-14T00:08:10.140Z,19.70
2023-05-14T00:09:09.961Z,22.00
2023-05-14T00:10:09.936Z,20.10
2023-05-14T00:11:09.955Z,20.70
2023-05-14T00:12:09.936Z,19.60
2023-05-14T00:13:09.931Z,19.80
2023-05-14T00:14:09.960Z,19.90
2023-05-14T00:15:09.922Z,22.80
2023-05-14T00:16:09.970Z,24.50
2023-05-14T00:17:09.950Z,20.80
2023-05-14T00:18:09.923Z,26.30
2023-05-14T00:19:10.028Z,21.10
2023-05-14T00:20:10.008Z,18.50
2023-05-14T00:21:10.042Z,18.30
2023-05-14T00:22:09.885Z,19.10
2023-05-14T00:23:09.888Z,18.60
2023-05-14T00:24:09.882Z,20.70
2023-05-14T00:25:09.930Z,17.90
2023-05-14T00:26:09.869Z,21.40
2023-05-14T00:27:09.868Z,20.70
2023-05-14T00:28:09.867Z,19.40
2023-05-14T00:29:09.849Z,18.60
2023-05-14T00:30:09.851Z,25.30
2023-05-14T00:31:09.919Z,18.90
2023-05-14T00:32:09.829Z,21.50
2023-05-14T00:33:09.842Z,21.10
2023-05-14T00:34:09.822Z,21.70
2023-05-14T00:35:09.848Z,21.10
2023-05-14T00:36:09.856Z,23.00
2023-05-14T00:37:09.824Z,17.90
2023-05-14T00:38:09.746Z,24.00
2023-05-14T00:39:09.738Z,20.10
2023-05-14T00:40:09.764Z,21.80
2023-05-14T00:41:09.753Z,20.50
2023-05-14T00:42:09.732Z,20.10
2023-05-14T00:43:09.764Z,21.70
2023-05-14T00:44:09.741Z,24.70
2023-05-14T00:45:09.741Z,21.30
2023-05-14T00:46:09.764Z,22.00
2023-05-14T00:47:09.773Z,26.70
2023-05-14T00:48:09.729Z,23.30
2023-05-14T00:49:09.685Z,22.80
2023-05-14T00:50:09.670Z,21.80
2023-05-14T00:51:09.663Z,22.30
2023-05-14T00:52:09.659Z,23.60
2023-05-14T00:53:09.664Z,25.00
2023-05-14T00:54:09.688Z,26.80
2023-05-14T00:55:09.625Z,24.00
2023-05-14T00:56:09.666Z,24.40
2023-05-14T00:57:09.626Z,22.50
2023-05-14T00:58:09.623Z,22.50
2023-05-14T00:59:09.639Z,22.70
2023-05-14T01:00:09.645Z,27.40
2023-05-14T01:01:09.652Z,22.00
2023-05-14T01:02:09.628Z,21.00
2023-05-14T01:03:09.668Z,23.30
2023-05-14T01:04:09.582Z,24.40
2023-05-14T01:05:09.621Z,26.60
2023-05-14T01:06:09.564Z,24.80
2023-05-14T01:07:09.566Z,22.10
2023-05-14T01:08:09.567Z,22.90
2023-05-14T01:09:09.593Z,24.60
2023-05-14T01:10:09.619Z,23.40
2023-05-14T01:11:09.510Z,21.40
2023-05-14T01:12:09.524Z,23.70
2023-05-14T01:13:09.491Z,25.70
2023-05-14T01:14:09.828Z,24.80
2023-05-14T01:15:09.512Z,26.20
2023-05-14T01:16:09.557Z,23.20
2023-05-14T01:17:09.461Z,24.70
2023-05-14T01:18:09.607Z,25.60
2023-05-14T01:19:09.692Z,22.10
2023-05-14T01:20:09.462Z,22.90
2023-05-14T01:21:09.739Z,19.60
2023-05-14T01:22:09.423Z,18.10
2023-05-14T01:23:09.421Z,21.00
2023-05-14T01:24:09.452Z,17.20
2023-05-14T01:25:09.419Z,17.50
2023-05-14T01:26:09.544Z,18.00
2023-05-14T01:27:09.451Z,16.50
2023-05-14T01:28:09.423Z,21.80
2023-05-14T01:29:09.391Z,17.30
2023-05-14T01:30:09.407Z,21.20
2023-05-14T01:31:09.370Z,17.60
2023-05-14T01:32:09.428Z,18.20
2023-05-14T01:33:09.446Z,21.40
2023-05-14T01:34:09.369Z,19.90
2023-05-14T01:35:09.375Z,18.70
2023-05-14T01:36:09.358Z,20.80
2023-05-14T01:37:09.342Z,18.80
2023-05-14T01:38:09.382Z,21.70
2023-05-14T01:39:09.319Z,21.00
2023-05-14T01:40:09.337Z,19.10
2023-05-14T01:41:09.322Z,17.00
2023-05-14T01:42:09.328Z,16.40
2023-05-14T01:43:09.323Z,20.80
2023-05-14T01:44:09.342Z,18.30
2023-05-14T01:45:09.319Z,18.20
2023-05-14T01:46:09.305Z,20.20
2023-05-14T01:47:09.470Z,15.10
2023-05-14T01:48:09.319Z,18.30
2023-05-14T01:49:09.257Z,20.60
2023-05-14T01:50:09.306Z,19.20
2023-05-14T01:51:09.279Z,18.40
2023-05-14T01:52:09.242Z,21.80
2023-05-14T01:53:09.218Z,24.70
2023-05-14T01:54:09.221Z,25.20
2023-05-14T01:55:09.223Z,22.50
2023-05-14T01:56:09.252Z,22.40
2023-05-14T01:57:09.198Z,24.20
2023-05-14T01:58:09.207Z,23.20
2023-05-14T01:59:09.210Z,31.40
2023-05-14T02:00:09.179Z,21.10
2023-05-14T02:01:09.234Z,23.70
2023-05-14T02:02:09.161Z,23.50
2023-05-14T02:03:09.231Z,26.20
2023-05-14T02:04:09.195Z,26.90
2023-05-14T02:05:09.126Z,29.40
2023-05-14T02:06:09.116Z,24.40
2023-05-14T02:07:09.146Z,22.60
2023-05-14T02:08:09.115Z,24.70
2023-05-14T02:09:09.115Z,25.30
2023-05-14T02:10:09.096Z,23.90
2023-05-14T02:11:09.097Z,24.60
2023-05-14T02:12:09.101Z,22.80
2023-05-14T02:13:09.122Z,25.80
2023-05-14T02:14:09.058Z,28.90
2023-05-14T02:15:09.109Z,26.90
2023-05-14T02:16:09.175Z,28.30
2023-05-14T02:17:09.078Z,28.50
2023-05-14T02:18:09.191Z,30.20
2023-05-14T02:19:09.092Z,28.80
2023-05-14T02:20:09.022Z,28.00
2023-05-14T02:21:09.015Z,27.20
2023-05-14T02:22:09.003Z,29.50
2023-05-14T02:23:09.000Z,26.30
2023-05-14T02:24:09.301Z,28.70
2023-05-14T02:25:08.980Z,28.10
2023-05-14T02:26:09.000Z,28.50
2023-05-14T02:27:09.000Z,25.50
2023-05-14T02:28:08.985Z,29.20
2023-05-14T02:29:09.049Z,28.00
2023-05-14T02:30:09.100Z,30.60
2023-05-14T02:31:08.957Z,28.00
2023-05-14T02:32:08.969Z,30.60
2023-05-14T02:33:09.061Z,27.30
2023-05-14T02:34:08.921Z,22.70
2023-05-14T02:35:08.915Z,24.70
2023-05-14T02:36:08.979Z,28.10
2023-05-14T02:37:08.901Z,29.90
2023-05-14T02:38:08.921Z,34.60
2023-05-14T02:39:08.889Z,25.80
2023-05-14T02:40:08.890Z,34.00
2023-05-14T02:41:08.927Z,27.70
2023-05-14T02:42:08.880Z,30.10
2023-05-14T02:43:08.859Z,27.50
2023-05-14T02:44:08.858Z,29.60
2023-05-14T02:45:08.855Z,32.90
2023-05-14T02:46:08.869Z,29.40
2023-05-14T02:47:08.946Z,28.40
2023-05-14T02:48:08.874Z,30.60
2023-05-14T02:49:08.818Z,30.90
2023-05-14T02:50:08.810Z,31.90
2023-05-14T02:51:08.819Z,30.60
2023-05-14T02:52:08.802Z,25.50
2023-05-14T02:53:08.880Z,27.90
2023-05-14T02:54:08.797Z,27.10
2023-05-14T02:55:08.783Z,27.70
2023-05-14T02:56:08.781Z,27.30
2023-05-14T02:57:08.782Z,29.40
2023-05-14T02:58:08.815Z,26.70
2023-05-14T02:59:08.771Z,26.50
2023-05-14T03:00:08.796Z,24.60
2023-05-14T03:01:08.800Z,27.30
2023-05-14T03:02:08.775Z,25.60
2023-05-14T03:03:08.777Z,24.60
2023-05-14T03:04:08.902Z,26.40
2023-05-14T03:05:08.776Z,26.10
2023-05-14T03:06:08.701Z,24.60
2023-05-14T03:07:08.717Z,24.10
2023-05-14T03:08:08.699Z,22.90
2023-05-14T03:09:08.664Z,25.70
2023-05-14T03:10:08.742Z,26.80
2023-05-14T03:11:08.704Z,26.90
2023-05-14T03:12:08.740Z,28.90
2023-05-14T03:13:08.676Z,26.50
2023-05-14T03:14:08.645Z,27.40
2023-05-14T03:15:08.658Z,27.20
2023-05-14T03:16:08.674Z,28.10
2023-05-14T03:17:08.631Z,29.20
2023-05-14T03:18:08.675Z,29.00
2023-05-14T03:19:08.698Z,26.80
2023-05-14T03:20:08.656Z,25.50
2023-05-14T03:21:08.582Z,24.20
2023-05-14T03:22:08.628Z,25.00
2023-05-14T03:23:08.579Z,29.00
2023-05-14T03:24:08.584Z,25.80
2023-05-14T03:25:08.544Z,26.50
2023-05-14T03:26:08.582Z,25.70
2023-05-14T03:27:08.548Z,27.80
2023-05-14T03:28:08.723Z,30.40
2023-05-14T03:29:08.571Z,28.00
2023-05-14T03:30:08.545Z,29.80
2023-05-14T03:31:08.561Z,29.70
2023-05-14T03:32:08.533Z,27.70
2023-05-14T03:33:08.543Z,30.80
2023-05-14T03:34:08.505Z,30.30
2023-05-14T03:35:08.511Z,31.60
2023-05-14T03:36:08.524Z,30.70
2023-05-14T03:37:08.482Z,31.40
2023-05-14T03:38:08.546Z,30.40
2023-05-14T03:39:08.507Z,30.80
2023-05-14T03:40:08.449Z,31.20
2023-05-14T03:41:08.446Z,29.00
2023-05-14T03:42:08.450Z,33.50
2023-05-14T03:43:08.440Z,31.40
2023-05-14T03:44:08.428Z,28.00
2023-05-14T03:45:08.467Z,27.20
2023-05-14T03:46:08.544Z,32.10
2023-05-14T03:47:08.408Z,31.10
2023-05-14T03:48:08.514Z,28.90
2023-05-14T03:49:08.528Z,28.10
2023-05-14T03:50:08.398Z,27.70
2023-05-14T03:51:08.429Z,32.50
2023-05-14T03:52:08.377Z,27.80
2023-05-14T03:53:08.367Z,29.90
2023-05-14T03:54:08.392Z,30.90
2023-05-14T03:55:08.346Z,27.00
2023-05-14T03:56:08.345Z,27.70
2023-05-14T03:57:08.412Z,26.40
2023-05-14T03:58:08.329Z,28.90
2023-05-14T03:59:08.300Z,25.50
2023-05-14T04:00:08.331Z,24.70
2023-05-14T04:01:08.329Z,29.40
2023-05-14T04:02:08.302Z,28.30
2023-05-14T04:03:08.492Z,25.50
2023-05-14T04:04:08.414Z,24.40
2023-05-14T04:05:08.295Z,26.20
2023-05-14T04:06:08.283Z,28.30
2023-05-14T04:07:08.289Z,25.10
2023-05-14T04:08:08.318Z,23.70
2023-05-14T04:09:08.289Z,27.40
2023-05-14T04:10:08.240Z,30.40
2023-05-14T04:11:08.245Z,23.80
2023-05-14T04:12:08.231Z,24.60
2023-05-14T04:13:08.263Z,26.20
2023-05-14T04:14:08.267Z,27.60
2023-05-14T04:15:08.240Z,25.10
2023-05-14T04:16:08.235Z,22.90
2023-05-14T04:17:08.185Z,27.40
2023-05-14T04:18:08.244Z,27.00
2023-05-14T04:19:08.232Z,27.60
2023-05-14T04:20:08.209Z,26.10
2023-05-14T04:21:08.162Z,25.90
2023-05-14T04:22:08.164Z,26.10
2023-05-14T04:23:08.184Z,23.50
2023-05-14T04:24:08.177Z,26.50
2023-05-14T04:25:08.186Z,23.30
2023-05-14T04:26:08.103Z,23.10
2023-05-14T04:27:08.136Z,23.70
2023-05-14T04:28:08.125Z,24.50
2023-05-14T04:29:08.113Z,23.90
2023-05-14T04:30:08.355Z,24.50
2023-05-14T04:31:08.079Z,21.20
2023-05-14T04:32:08.121Z,22.60
2023-05-14T04:33:08.122Z,22.30
2023-05-14T04:34:08.064Z,22.80
2023-05-14T04:35:08.060Z,18.10
2023-05-14T04:36:08.078Z,23.00
2023-05-14T04:37:08.046Z,16.50
2023-05-14T04:38:08.039Z,16.20
2023-05-14T04:39:08.054Z,17.60
2023-05-14T04:40:08.034Z,19.50
2023-05-14T04:41:08.017Z,19.70
2023-05-14T04:42:08.060Z,17.00
2023-05-14T04:43:07.999Z,18.30
2023-05-14T04:44:07.997Z,15.30
2023-05-14T04:45:07.998Z,20.30
2023-05-14T04:46:07.998Z,18.20
2023-05-14T04:47:07.979Z,16.60
2023-05-14T04:48:08.079Z,15.30
2023-05-14T04:49:07.967Z,14.00
2023-05-14T04:50:07.963Z,15.60
2023-05-14T04:51:07.938Z,17.10
2023-05-14T04:52:07.940Z,14.10
2023-05-14T04:53:07.941Z,11.80
2023-05-14T04:54:08.074Z,15.90
2023-05-14T04:55:07.915Z,15.70
2023-05-14T04:56:07.895Z,20.80
2023-05-14T04:57:07.898Z,17.30
2023-05-14T04:58:07.901Z,18.20
2023-05-14T04:59:07.899Z,15.90
2023-05-14T05:00:07.912Z,19.00
2023-05-14T05:01:07.917Z,14.40
2023-05-14T05:02:07.884Z,14.90
2023-05-14T05:03:07.939Z,15.30
2023-05-14T05:04:08.007Z,18.10
2023-05-14T05:05:07.901Z,20.30
2023-05-14T05:06:07.861Z,15.70
2023-05-14T05:07:07.840Z,17.70
2023-05-14T05:08:07.821Z,17.80
2023-05-14T05:09:07.847Z,21.50
2023-05-14T05:10:07.863Z,19.50
2023-05-14T05:11:07.847Z,15.40
2023-05-14T05:12:07.807Z,19.10
2023-05-14T05:13:07.797Z,18.10
2023-05-14T05:14:07.784Z,15.80
2023-05-14T05:15:07.792Z,17.40
2023-05-14T05:16:07.955Z,15.30
2023-05-14T05:17:07.761Z,16.70
2023-05-14T05:18:08.015Z,17.30
2023-05-14T05:19:07.778Z,15.00
2023-05-14T05:20:07.764Z,15.70
2023-05-14T05:21:07.749Z,13.60
2023-05-14T05:22:07.786Z,14.70
2023-05-14T05:23:07.746Z,16.30
2023-05-14T05:24:07.725Z,15.40
2023-05-14T05:25:07.720Z,18.00
2023-05-14T05:26:07.712Z,14.50
2023-05-14T05:27:07.705Z,14.30
2023-05-14T05:28:07.742Z,12.90
2023-05-14T05:29:07.688Z,14.80
2023-05-14T05:30:07.731Z,14.90
2023-05-14T05:31:07.740Z,12.60
2023-05-14T05:32:07.658Z,11.70
2023-05-14T05:33:08.090Z,11.90
2023-05-14T05:34:07.624Z,12.40
2023-05-14T05:35:07.675Z,13.20
2023-05-14T05:36:07.620Z,12.60
2023-05-14T05:37:07.632Z,13.40
2023-05-14T05:38:07.626Z,11.20
2023-05-14T05:39:07.647Z,11.20
2023-05-14T05:40:07.605Z,12.30
2023-05-14T05:41:07.590Z,10.50
2023-05-14T05:42:07.593Z,11.60
2023-05-14T05:43:07.581Z,15.60
2023-05-14T05:44:07.632Z,12.40
2023-05-14T05:45:07.563Z,15.20
2023-05-14T05:46:07.645Z,12.40
2023-05-14T05:47:07.544Z,14.80
2023-05-14T05:48:07.651Z,10.70
2023-05-14T05:49:07.546Z,13.60
2023-05-14T05:50:07.593Z,14.10
2023-05-14T05:51:07.529Z,12.00
2023-05-14T05:52:07.495Z,13.90
2023-05-14T05:53:07.512Z,16.20
2023-05-14T05:54:07.506Z,13.00
2023-05-14T05:55:07.500Z,12.60
2023-05-14T05:56:07.524Z,14.40
2023-05-14T05:57:07.491Z,12.50
2023-05-14T05:58:07.475Z,11.80
2023-05-14T05:59:07.489Z,12.30
2023-05-14T06:00:07.452Z,12.80
2023-05-14T06:01:07.490Z,15.80
2023-05-14T06:02:07.479Z,14.40
2023-05-14T06:03:07.504Z,11.60
2023-05-14T06:04:07.440Z,11.00
2023-05-14T06:05:07.485Z,14.20
2023-05-14T06:06:07.550Z,12.00
2023-05-14T06:07:07.523Z,10.40
2023-05-14T06:08:07.464Z,12.80
2023-05-14T06:09:07.505Z,9.80
2023-05-14T06:10:07.387Z,14.30
2023-05-14T06:11:07.491Z,10.40
2023-05-14T06:12:07.468Z,11.70
2023-05-14T06:13:07.776Z,11.90
2023-05-14T06:14:07.488Z,11.20
2023-05-14T06:15:07.424Z,10.40
2023-05-14T06:16:07.414Z,11.00
2023-05-14T06:17:07.597Z,11.40
2023-05-14T06:18:07.648Z,9.90
2023-05-14T06:19:07.561Z,9.30
2023-05-14T06:20:07.279Z,9.30
2023-05-14T06:21:07.304Z,9.70
2023-05-14T06:22:07.298Z,14.20
2023-05-14T06:23:07.281Z,11.00
2023-05-14T06:24:07.488Z,9.80
2023-05-14T06:25:07.287Z,10.50
2023-05-14T06:26:07.314Z,10.20
2023-05-14T06:27:07.267Z,9.20
2023-05-14T06:28:07.263Z,10.40
2023-05-14T06:29:07.261Z,12.30
2023-05-14T06:30:07.290Z,13.40
2023-05-14T06:31:07.240Z,11.50
2023-05-14T06:32:07.322Z,9.90
2023-05-14T06:33:07.283Z,9.90
2023-05-14T06:34:07.209Z,9.70
2023-05-14T06:35:07.206Z,8.40
2023-05-14T06:36:07.230Z,12.20
2023-05-14T06:37:07.201Z,8.50
2023-05-14T06:38:07.196Z,9.90
2023-05-14T06:39:07.175Z,11.20
2023-05-14T06:40:07.183Z,8.30
2023-05-14T06:41:07.213Z,19.10
2023-05-14T06:42:07.129Z,11.70
2023-05-14T06:43:07.184Z,9.80
2023-05-14T06:44:07.151Z,12.80
2023-05-14T06:45:07.136Z,11.90
2023-05-14T06:46:07.169Z,10.30
2023-05-14T06:47:07.103Z,8.60
2023-05-14T06:48:07.164Z,8.90
2023-05-14T06:49:07.115Z,9.70
2023-05-14T06:50:08.840Z,7.20
2023-05-14T06:51:07.095Z,6.80
2023-05-14T06:52:07.100Z,11.20
2023-05-14T06:53:07.063Z,9.30
2023-05-14T06:54:07.088Z,8.60
2023-05-14T06:55:07.063Z,10.10
2023-05-14T06:56:07.048Z,7.30
2023-05-14T06:57:07.041Z,9.40
2023-05-14T06:58:07.069Z,9.30
2023-05-14T06:59:07.020Z,11.60
2023-05-14T07:00:07.000Z,9.20
2023-05-14T07:01:07.015Z,6.80
2023-05-14T07:02:06.981Z,7.70
2023-05-14T07:03:07.028Z,8.70
2023-05-14T07:04:07.106Z,10.80
2023-05-14T07:05:06.946Z,7.50
2023-05-14T07:06:06.963Z,8.30
2023-05-14T07:07:06.940Z,9.10
2023-05-14T07:08:06.922Z,6.80
2023-05-14T07:09:07.004Z,7.70
2023-05-14T07:10:06.936Z,7.10
2023-05-14T07:11:06.956Z,7.50
2023-05-14T07:12:06.911Z,9.50
2023-05-14T07:13:06.911Z,9.00
2023-05-14T07:14:06.906Z,7.80
2023-05-14T07:15:06.935Z,7.90
2023-05-14T07:16:06.883Z,8.20
2023-05-14T07:17:06.953Z,8.30
2023-05-14T07:18:06.893Z,9.10
2023-05-14T07:19:06.927Z,7.70
2023-05-14T07:20:06.872Z,7.30
2023-05-14T07:21:06.819Z,8.40
2023-05-14T07:22:06.834Z,8.50
2023-05-14T07:23:06.832Z,9.40
2023-05-14T07:24:06.805Z,9.60
2023-05-14T07:25:06.839Z,8.60
2023-05-14T07:26:06.846Z,8.00
2023-05-14T07:27:06.790Z,7.10
2023-05-14T07:28:06.782Z,8.40
2023-05-14T07:29:06.754Z,7.70
2023-05-14T07:30:06.747Z,6.30
2023-05-14T07:31:06.803Z,6.10
2023-05-14T07:32:06.775Z,8.90
2023-05-14T07:33:06.817Z,7.20
2023-05-14T07:34:06.736Z,9.60
2023-05-14T07:35:06.853Z,8.00
2023-05-14T07:36:06.729Z,8.70
2023-05-14T07:37:07.131Z,8.40
2023-05-14T07:38:06.755Z,7.00
2023-05-14T07:39:06.726Z,9.00
2023-05-14T07:40:06.726Z,7.30
2023-05-14T07:41:06.689Z,7.40
2023-05-14T07:42:06.684Z,8.00
2023-05-14T07:43:06.706Z,8.10
2023-05-14T07:44:06.652Z,8.00
2023-05-14T07:45:06.675Z,6.10
2023-05-14T07:46:06.673Z,9.00
2023-05-14T07:47:06.681Z,7.90
2023-05-14T07:48:06.838Z,7.90
2023-05-14T07:49:06.621Z,7.30
2023-05-14T07:50:06.609Z,8.20
2023-05-14T07:51:06.609Z,7.60
2023-05-14T07:52:06.615Z,8.10
2023-05-14T07:53:06.631Z,6.90
2023-05-14T07:54:06.650Z,9.20
2023-05-14T07:55:06.605Z,6.50
2023-05-14T07:56:06.605Z,6.00
2023-05-14T07:57:06.568Z,6.80
2023-05-14T07:58:06.586Z,7.30
2023-05-14T07:59:06.568Z,9.30
2023-05-14T08:00:06.571Z,8.60
2023-05-14T08:01:06.548Z,9.00
2023-05-14T08:02:06.598Z,8.00
2023-05-14T08:03:06.721Z,9.00
2023-05-14T08:04:06.636Z,6.50
2023-05-14T08:05:06.558Z,7.10
2023-05-14T08:06:06.518Z,6.80
2023-05-14T08:07:06.510Z,6.90
2023-05-14T08:08:06.483Z,8.00
2023-05-14T08:09:06.508Z,6.90
2023-05-14T08:10:06.519Z,6.80
2023-05-14T08:11:06.562Z,7.60
2023-05-14T08:12:06.453Z,7.70
2023-05-14T08:13:06.472Z,5.80
2023-05-14T08:14:06.475Z,7.30
2023-05-14T08:15:06.509Z,8.90
2023-05-14T08:16:06.487Z,9.50
2023-05-14T08:17:06.488Z,7.20
2023-05-14T08:18:06.555Z,9.40
2023-05-14T08:19:06.440Z,7.40
2023-05-14T08:20:06.434Z,6.10
2023-05-14T08:21:06.428Z,7.10
2023-05-14T08:22:06.420Z,6.80
2023-05-14T08:23:06.404Z,5.10
2023-05-14T08:24:06.407Z,6.00
2023-05-14T08:25:06.419Z,5.40
2023-05-14T08:26:06.359Z,4.80
2023-05-14T08:27:06.386Z,5.70
2023-05-14T08:28:06.430Z,8.00
2023-05-14T08:29:07.136Z,6.40
2023-05-14T08:30:06.331Z,5.00
2023-05-14T08:31:06.352Z,7.10
2023-05-14T08:32:19.325Z,6.00
2023-05-14T08:33:07.425Z,6.40
2023-05-14T08:34:06.299Z,6.00
2023-05-14T08:35:06.316Z,6.50
2023-05-14T08:36:06.302Z,5.90
2023-05-14T08:37:06.294Z,8.00
2023-05-14T08:38:06.278Z,5.80
2023-05-14T08:39:06.298Z,6.70
2023-05-14T08:40:06.258Z,6.50
2023-05-14T08:41:06.279Z,5.30
2023-05-14T08:42:06.294Z,5.40
2023-05-14T08:43:06.248Z,6.50
2023-05-14T08:44:06.287Z,5.70
2023-05-14T08:45:06.269Z,5.50
2023-05-14T08:46:06.232Z,8.40
2023-05-14T08:47:06.254Z,6.10
2023-05-14T08:48:06.284Z,6.30
2023-05-14T08:49:06.258Z,5.50
2023-05-14T08:50:06.260Z,4.60
2023-05-14T08:51:06.212Z,6.10
2023-05-14T08:52:06.206Z,4.90
2023-05-14T08:53:06.183Z,5.80
2023-05-14T08:54:06.181Z,4.30
2023-05-14T08:55:06.191Z,4.80
2023-05-14T08:56:06.183Z,5.50
2023-05-14T08:57:06.162Z,6.80
2023-05-14T08:58:06.155Z,5.00
2023-05-14T08:59:06.125Z,5.80
2023-05-14T09:00:06.136Z,4.60
2023-05-14T09:01:06.133Z,5.70
2023-05-14T09:02:06.424Z,4.90
2023-05-14T09:03:06.120Z,4.60
2023-05-14T09:04:06.154Z,3.70
2023-05-14T09:05:06.071Z,5.30
2023-05-14T09:06:06.081Z,4.10
2023-05-14T09:07:06.094Z,5.40
2023-05-14T09:08:06.142Z,6.80
2023-05-14T09:09:06.123Z,5.50
2023-05-14T09:10:06.069Z,4.20
2023-05-14T09:11:06.031Z,6.20
2023-05-14T09:12:06.034Z,6.00
2023-05-14T09:13:06.087Z,3.70
2023-05-14T09:14:06.020Z,4.30
2023-05-14T09:15:06.002Z,3.70
2023-05-14T09:16:06.037Z,4.40
2023-05-14T09:17:06.004Z,3.80
2023-05-14T09:18:06.066Z,5.20
2023-05-14T09:19:06.089Z,3.50
2023-05-14T09:20:06.021Z,3.90
2023-05-14T09:21:05.983Z,4.10
2023-05-14T09:22:05.944Z,3.50
2023-05-14T09:23:05.948Z,5.20
2023-05-14T09:24:05.962Z,5.50
2023-05-14T09:25:05.972Z,5.60
2023-05-14T09:26:05.960Z,4.10
2023-05-14T09:27:05.926Z,4.90
2023-05-14T09:28:05.896Z,5.70
2023-05-14T09:29:05.913Z,4.90
2023-05-14T09:30:05.883Z,4.50
2023-05-14T09:31:05.969Z,3.90
2023-05-14T09:32:06.022Z,5.80
2023-05-14T09:33:05.878Z,6.00
2023-05-14T09:34:05.860Z,5.60
2023-05-14T09:35:05.864Z,3.80
2023-05-14T09:36:05.863Z,4.10
2023-05-14T09:37:05.869Z,4.60
2023-05-14T09:38:05.853Z,3.70
2023-05-14T09:39:05.847Z,6.10
2023-05-14T09:40:05.821Z,4.10
2023-05-14T09:41:05.855Z,5.50
2023-05-14T09:42:05.803Z,4.00
2023-05-14T09:43:05.806Z,4.60
2023-05-14T09:44:06.846Z,5.30
2023-05-14T09:45:05.778Z,3.20
2023-05-14T09:46:05.770Z,5.50
2023-05-14T09:47:05.832Z,3.90
2023-05-14T09:48:05.877Z,5.30
2023-05-14T09:49:05.745Z,4.50
2023-05-14T09:50:05.715Z,3.70
2023-05-14T09:51:05.754Z,4.30
2023-05-14T09:52:05.761Z,3.80
2023-05-14T09:53:05.727Z,4.50
2023-05-14T09:54:05.759Z,5.50
2023-05-14T09:55:05.713Z,5.50
2023-05-14T09:56:05.694Z,3.90
2023-05-14T09:57:05.776Z,4.80
2023-05-14T09:58:05.692Z,5.60
2023-05-14T09:59:05.669Z,6.30
2023-05-14T10:00:05.790Z,5.00
2023-05-14T10:01:05.731Z,4.20
2023-05-14T10:02:05.642Z,6.60
2023-05-14T10:03:05.758Z,4.20
2023-05-14T10:04:05.954Z,5.10
2023-05-14T10:05:06.072Z,4.80
2023-05-14T10:06:05.680Z,6.10
2023-05-14T10:07:05.631Z,5.20
2023-05-14T10:08:05.647Z,9.30
2023-05-14T10:09:05.658Z,5.40
2023-05-14T10:10:05.599Z,5.80
2023-05-14T10:11:05.628Z,6.70
2023-05-14T10:12:05.612Z,5.00
2023-05-14T10:13:05.567Z,5.80
2023-05-14T10:14:05.582Z,4.30
2023-05-14T10:15:05.566Z,4.10
2023-05-14T10:16:05.598Z,7.20
2023-05-14T10:17:05.596Z,4.40
2023-05-14T10:18:05.610Z,5.70
2023-05-14T10:19:05.591Z,4.70
2023-05-14T10:20:05.636Z,6.70
2023-05-14T10:21:05.529Z,5.60
2023-05-14T10:22:05.538Z,4.20
2023-05-14T10:23:05.484Z,6.90
2023-05-14T10:24:05.487Z,7.40
2023-05-14T10:25:05.496Z,4.70
2023-05-14T10:26:05.456Z,5.40
2023-05-14T10:27:05.579Z,5.00
2023-05-14T10:28:05.456Z,4.50
2023-05-14T10:29:05.479Z,3.80
2023-05-14T10:30:05.432Z,6.40
2023-05-14T10:31:05.440Z,5.80
2023-05-14T10:32:05.456Z,6.20
2023-05-14T10:33:05.487Z,5.70
2023-05-14T10:34:05.401Z,5.70
2023-05-14T10:35:05.405Z,4.60
2023-05-14T10:36:05.468Z,5.00
2023-05-14T10:37:05.458Z,4.50
2023-05-14T10:38:05.376Z,5.70
2023-05-14T10:39:05.372Z,6.30
2023-05-14T10:40:05.367Z,4.10
2023-05-14T10:41:05.348Z,4.30
2023-05-14T10:42:05.347Z,5.10
2023-05-14T10:43:05.376Z,5.50
2023-05-14T10:44:05.324Z,4.30
2023-05-14T10:45:05.328Z,5.20
2023-05-14T10:46:05.353Z,6.50
2023-05-14T10:47:05.532Z,4.60
2023-05-14T10:48:05.387Z,5.00
2023-05-14T10:49:05.299Z,4.40
2023-05-14T10:50:05.286Z,6.50
2023-05-14T10:51:05.305Z,4.60
2023-05-14T10:52:05.294Z,4.80
2023-05-14T10:53:05.313Z,5.20
2023-05-14T10:54:05.266Z,3.90
2023-05-14T10:55:05.257Z,4.40
2023-05-14T10:56:05.264Z,4.70
2023-05-14T10:57:05.265Z,4.80
2023-05-14T10:58:05.288Z,4.20
2023-05-14T10:59:05.237Z,5.90
2023-05-14T11:00:05.337Z,10.10
2023-05-14T11:01:05.270Z,6.40
2023-05-14T11:02:05.290Z,7.70
2023-05-14T11:03:05.271Z,6.70
2023-05-14T11:04:05.235Z,4.20
2023-05-14T11:05:05.219Z,5.40
2023-05-14T11:06:05.185Z,3.80
2023-05-14T11:07:05.180Z,5.20
2023-05-14T11:08:05.154Z,4.20
2023-05-14T11:09:05.211Z,6.10
2023-05-14T11:10:05.148Z,6.30
2023-05-14T11:11:05.157Z,4.80
2023-05-14T11:12:05.123Z,6.40
2023-05-14T11:13:05.125Z,22.20
2023-05-14T11:14:05.152Z,8.30
2023-05-14T11:15:05.215Z,7.20
2023-05-14T11:16:21.117Z,6.10
2023-05-14T11:17:06.136Z,4.50
2023-05-14T11:18:05.183Z,3.40
2023-05-14T11:19:05.156Z,6.10
2023-05-14T11:20:05.060Z,4.30
2023-05-14T11:21:05.170Z,5.90
2023-05-14T11:22:05.124Z,7.10
2023-05-14T11:23:05.097Z,4.20
2023-05-14T11:24:05.056Z,4.70
2023-05-14T11:25:05.117Z,6.50
2023-05-14T11:26:05.229Z,4.30
2023-05-14T11:27:05.105Z,3.90
2023-05-14T11:28:05.015Z,5.70
2023-05-14T11:29:05.106Z,7.10
2023-05-14T11:30:05.098Z,9.80
2023-05-14T11:31:05.107Z,8.70
2023-05-14T11:32:05.205Z,4.50
2023-05-14T11:33:05.104Z,4.00
2023-05-14T11:34:05.057Z,4.90
2023-05-14T11:35:05.049Z,4.40
2023-05-14T11:36:05.033Z,6.20
2023-05-14T11:37:05.060Z,8.90
2023-05-14T11:38:06.070Z,4.70
2023-05-14T11:39:05.037Z,5.40
2023-05-14T11:40:06.033Z,6.00
2023-05-14T11:41:06.025Z,9.10
2023-05-14T11:42:04.916Z,6.30
2023-05-14T11:43:05.189Z,5.50
2023-05-14T11:44:05.921Z,5.80
2023-05-14T11:45:05.997Z,8.10
2023-05-14T11:46:04.975Z,6.00
2023-05-14T11:47:04.860Z,7.40
2023-05-14T11:48:04.921Z,7.30
2023-05-14T11:49:04.904Z,5.50
2023-05-14T11:50:05.132Z,4.50
2023-05-14T11:51:04.860Z,7.10
2023-05-14T11:52:04.851Z,4.40
2023-05-14T11:53:04.811Z,6.70
2023-05-14T11:54:04.881Z,3.60
2023-05-14T11:55:04.834Z,4.90
2023-05-14T11:56:05.357Z,4.20
2023-05-14T11:57:04.855Z,4.30
2023-05-14T11:58:04.830Z,6.20
2023-05-14T11:59:04.957Z,6.50
2023-05-14T12:00:04.864Z,3.70
2023-05-14T12:01:04.798Z,4.80
2023-05-14T12:02:04.850Z,5.80
2023-05-14T12:03:04.864Z,8.10
2023-05-14T12:04:04.858Z,3.00
2023-05-14T12:05:04.769Z,6.80
2023-05-14T12:06:04.714Z,4.30
2023-05-14T12:07:04.783Z,5.80
2023-05-14T12:08:04.766Z,4.50
2023-05-14T12:09:04.798Z,5.50
2023-05-14T12:10:04.778Z,4.50
2023-05-14T12:11:04.726Z,6.60
2023-05-14T12:12:04.742Z,9.00
2023-05-14T12:13:04.739Z,7.10
2023-05-14T12:14:04.715Z,6.70
2023-05-14T12:15:04.753Z,6.80
2023-05-14T12:16:04.837Z,6.20
2023-05-14T12:17:04.650Z,3.40
2023-05-14T12:18:13.645Z,4.50
2023-05-14T12:19:05.751Z,4.00
2023-05-14T12:20:04.647Z,6.50
2023-05-14T12:21:04.612Z,6.30
2023-05-14T12:22:04.636Z,3.70
2023-05-14T12:23:04.648Z,3.30
2023-05-14T12:24:04.620Z,3.90
2023-05-14T12:25:04.638Z,5.10
2023-05-14T12:26:04.595Z,4.60
2023-05-14T12:27:04.670Z,4.80
2023-05-14T12:28:04.629Z,8.40
2023-05-14T12:29:05.625Z,9.00
2023-05-14T12:30:19.768Z,5.40
2023-05-14T12:31:05.642Z,5.50
2023-05-14T12:32:04.611Z,6.20
2023-05-14T12:33:04.598Z,7.00
2023-05-14T12:34:04.619Z,5.20
2023-05-14T12:35:04.561Z,6.60
2023-05-14T12:36:20.482Z,6.10
2023-05-14T12:37:05.521Z,5.10
2023-05-14T12:38:04.481Z,9.30
2023-05-14T12:39:04.522Z,5.70
2023-05-14T12:40:04.559Z,3.70
2023-05-14T12:41:04.623Z,5.10
2023-05-14T12:42:04.476Z,6.30
2023-05-14T12:43:04.488Z,3.20
2023-05-14T12:44:04.479Z,3.90
2023-05-14T12:45:04.473Z,3.60
2023-05-14T12:46:04.488Z,3.80
2023-05-14T12:47:04.556Z,5.50
2023-05-14T12:48:04.503Z,3.60
2023-05-14T12:49:04.460Z,4.20
2023-05-14T12:50:04.451Z,3.10
2023-05-14T12:51:04.431Z,2.50
2023-05-14T12:52:22.405Z,3.90
2023-05-14T12:53:05.405Z,5.60
2023-05-14T12:54:04.443Z,4.00
2023-05-14T12:55:04.372Z,3.70
2023-05-14T12:56:04.387Z,4.80
2023-05-14T12:57:04.367Z,3.60
2023-05-14T12:58:04.404Z,2.80
2023-05-14T12:59:04.342Z,4.30
2023-05-14T13:00:04.335Z,5.30
2023-05-14T13:01:04.400Z,4.40
2023-05-14T13:02:04.333Z,5.20
2023-05-14T13:03:04.393Z,5.70
2023-05-14T13:04:04.456Z,3.40
2023-05-14T13:05:04.288Z,6.30